createdAt,value
2023-04-12T00:00:29.914Z,12.80
2023-04-12T00:03:03.382Z,14.10
2023-04-12T00:05:31.977Z,12.80
2023-04-12T00:08:06.405Z,11.30
2023-04-12T00:10:36.863Z,12.60
2023-04-12T00:13:05.598Z,14.60
2023-04-12T00:15:35.925Z,15.40
2023-04-12T00:18:05.785Z,13.70
2023-04-12T00:20:34.605Z,12.80
2023-04-12T00:23:13.072Z,13.90
2023-04-12T00:25:41.549Z,13.90
2023-04-12T00:28:11.268Z,13.00
2023-04-12T00:30:41.498Z,14.80
2023-04-12T00:33:09.949Z,13.60
2023-04-12T00:35:38.386Z,12.20
2023-04-12T00:38:11.033Z,9.00
2023-04-12T00:40:43.023Z,9.50
2023-04-12T00:43:18.983Z,8.30
2023-04-12T00:45:47.916Z,8.70
2023-04-12T00:48:21.093Z,9.20
2023-04-12T00:50:50.341Z,8.30
2023-04-12T00:53:18.928Z,7.40
2023-04-12T00:55:47.468Z,8.30
2023-04-12T00:58:16.136Z,8.80
2023-04-12T01:00:50.660Z,8.80
2023-04-12T01:03:23.668Z,8.50
2023-04-12T01:06:09.762Z,9.10
2023-04-12T01:08:52.589Z,8.90
2023-04-12T01:11:32.053Z,8.00
2023-04-12T01:14:08.400Z,10.00
2023-04-12T01:16:51.446Z,10.30
2023-04-12T01:19:31.763Z,9.20
2023-04-12T01:22:00.401Z,10.90
2023-04-12T01:25:14.452Z,10.60
2023-04-12T01:27:45.472Z,10.70
2023-04-12T01:30:16.146Z,11.50
2023-04-12T01:32:47.201Z,10.20
2023-04-12T01:35:16.137Z,10.70
2023-04-12T01:37:45.281Z,10.60
2023-04-12T01:40:13.865Z,9.70
2023-04-12T01:42:42.576Z,10.50
2023-04-12T01:45:11.514Z,9.60
2023-04-12T01:47:41.508Z,10.50
2023-04-12T01:50:18.994Z,9.40
2023-04-12T01:52:53.101Z,9.10
2023-04-12T01:55:22.528Z,9.50
2023-04-12T01:57:50.928Z,9.80
2023-04-12T02:00:19.887Z,9.10
2023-04-12T02:02:49.235Z,9.90
2023-04-12T02:05:18.439Z,9.00
2023-04-12T02:07:46.935Z,8.20
2023-04-12T02:10:33.594Z,8.20
2023-04-12T02:13:03.828Z,8.70
2023-04-12T02:15:32.807Z,9.30
2023-04-12T02:18:03.955Z,7.90
2023-04-12T02:20:32.545Z,8.10
2023-04-12T02:23:01.253Z,9.00
2023-04-12T02:25:29.972Z,9.80
2023-04-12T02:27:58.850Z,9.30
2023-04-12T02:30:29.560Z,10.20
2023-04-12T02:32:59.425Z,9.80
2023-04-12T02:35:32.017Z,10.40
2023-04-12T02:38:11.718Z,10.10
2023-04-12T02:40:42.413Z,8.10
2023-04-12T02:45:47.877Z,9.50
2023-04-12T02:48:16.650Z,9.90
2023-04-12T02:50:45.456Z,9.30
2023-04-12T02:53:23.249Z,10.10
2023-04-12T02:56:13.220Z,9.60
2023-04-12T02:58:41.859Z,9.40
2023-04-12T03:01:13.500Z,8.00
2023-04-12T03:03:58.687Z,9.20
2023-04-12T03:06:43.475Z,8.90
2023-04-12T03:09:12.550Z,9.90
2023-04-12T03:11:41.494Z,10.40
2023-04-12T03:16:44.442Z,8.50
2023-04-12T03:19:15.991Z,8.50
2023-04-12T03:21:46.014Z,8.80
2023-04-12T03:24:14.497Z,13.00
2023-04-12T03:26:44.049Z,11.30
2023-04-12T03:29:19.703Z,20.10
2023-04-12T03:31:50.041Z,22.40
2023-04-12T03:34:19.302Z,21.20
2023-04-12T03:36:51.315Z,16.30
2023-04-12T03:39:48.180Z,16.30
2023-04-12T03:42:32.185Z,12.60
2023-04-12T03:45:07.284Z,12.30
2023-04-12T03:47:37.350Z,11.00
2023-04-12T03:50:11.631Z,11.10
2023-04-12T03:52:42.627Z,10.10
2023-04-12T03:55:13.796Z,8.90
2023-04-12T03:57:42.766Z,8.20
2023-04-12T04:00:12.766Z,8.00
2023-04-12T04:03:11.091Z,11.10
2023-04-12T04:05:48.541Z,11.80
2023-04-12T04:08:19.241Z,9.60
2023-04-12T04:10:54.598Z,10.40
2023-04-12T04:13:34.613Z,8.70
2023-04-12T04:16:07.593Z,9.00
2023-04-12T04:18:36.335Z,8.70
2023-04-12T04:21:09.925Z,8.10
2023-04-12T04:23:39.444Z,8.30
2023-04-12T04:26:12.015Z,7.60
2023-04-12T04:28:52.003Z,7.30
2023-04-12T04:31:26.554Z,9.00
2023-04-12T04:33:57.047Z,7.60
2023-04-12T04:36:35.711Z,7.90
2023-04-12T04:39:16.051Z,9.90
2023-04-12T04:41:46.911Z,9.40
2023-04-12T04:44:26.085Z,9.30
2023-04-12T04:46:59.360Z,8.00
2023-04-12T04:49:34.086Z,9.00
2023-04-12T04:52:10.825Z,10.80
2023-04-12T04:54:40.324Z,10.60
2023-04-12T04:57:13.043Z,11.30
2023-04-12T04:59:42.073Z,11.90
2023-04-12T05:04:50.332Z,11.60
2023-04-12T05:07:20.707Z,11.30
2023-04-12T05:09:49.975Z,13.90
2023-04-12T05:12:21.677Z,12.40
2023-04-12T05:15:08.817Z,12.60
2023-04-12T05:17:40.202Z,11.30
2023-04-12T05:20:11.109Z,10.70
2023-04-12T05:22:40.742Z,9.20
2023-04-12T05:25:10.024Z,9.80
2023-04-12T05:28:18.850Z,9.70
2023-04-12T05:30:56.008Z,7.30
2023-04-12T05:33:45.205Z,8.20
2023-04-12T05:36:14.062Z,7.70
2023-04-12T05:38:47.595Z,7.00
2023-04-12T05:41:17.827Z,7.70
2023-04-12T05:43:47.286Z,8.90
2023-04-12T05:46:19.931Z,9.40
2023-04-12T05:48:52.685Z,10.00
2023-04-12T05:51:30.655Z,10.00
2023-04-12T05:54:07.446Z,8.40
2023-04-12T05:56:38.063Z,8.60
2023-04-12T05:59:11.137Z,8.80
2023-04-12T06:01:43.421Z,8.30
2023-04-12T06:04:15.463Z,8.30
2023-04-12T06:06:52.238Z,8.00
2023-04-12T06:09:21.068Z,8.50
2023-04-12T06:11:49.877Z,10.10
2023-04-12T06:14:18.986Z,10.60
2023-04-12T06:16:48.081Z,12.30
2023-04-12T06:19:16.713Z,15.00
2023-04-12T06:21:48.621Z,12.90
2023-04-12T06:24:17.450Z,13.70
2023-04-12T06:26:48.004Z,14.40
2023-04-12T06:29:17.587Z,13.80
2023-04-12T06:31:48.734Z,13.10
2023-04-12T06:34:17.733Z,13.00
2023-04-12T06:36:48.271Z,11.40
2023-04-12T06:39:17.112Z,12.80
2023-04-12T06:41:47.749Z,11.50
2023-04-12T06:44:20.865Z,11.50
2023-04-12T06:46:49.325Z,11.10
2023-04-12T06:49:18.738Z,11.60
2023-04-12T06:51:47.551Z,11.90
2023-04-12T06:54:19.681Z,9.90
2023-04-12T06:56:49.330Z,10.90
2023-04-12T06:59:18.635Z,10.90
2023-04-12T07:01:48.908Z,10.40
2023-04-12T07:04:18.126Z,12.10
2023-04-12T07:06:50.019Z,13.20
2023-04-12T07:09:19.752Z,15.70
2023-04-12T07:11:48.827Z,13.60
2023-04-12T07:14:17.684Z,14.50
2023-04-12T07:16:48.509Z,12.60
2023-04-12T07:19:17.349Z,11.00
2023-04-12T07:21:54.806Z,12.40
2023-04-12T07:24:23.429Z,11.20
2023-04-12T07:26:55.511Z,12.20
2023-04-12T07:29:24.484Z,10.90
2023-04-12T07:31:53.176Z,10.10
2023-04-12T07:34:22.012Z,10.60
2023-04-12T07:36:51.806Z,11.70
2023-04-12T07:39:22.277Z,10.10
2023-04-12T07:44:54.982Z,12.20
2023-04-12T07:47:23.612Z,12.20
2023-04-12T07:49:52.691Z,12.10
2023-04-12T07:52:21.905Z,10.50
2023-04-12T07:54:58.807Z,12.50
2023-04-12T07:57:28.874Z,12.00
2023-04-12T07:59:57.684Z,11.20
2023-04-12T08:02:26.411Z,11.80
2023-04-12T08:04:55.223Z,9.70
2023-04-12T08:07:27.980Z,10.90
2023-04-12T08:09:56.986Z,9.30
2023-04-12T08:12:25.743Z,9.70
2023-04-12T08:14:54.280Z,12.60
2023-04-12T08:17:22.840Z,10.70
2023-04-12T08:19:51.507Z,10.50
2023-04-12T08:22:20.440Z,10.60
2023-04-12T08:24:50.408Z,10.30
2023-04-12T08:27:19.139Z,12.30
2023-04-12T08:29:48.058Z,11.10
2023-04-12T08:32:16.925Z,10.90
2023-04-12T08:34:46.236Z,10.40
2023-04-12T08:37:20.209Z,11.00
2023-04-12T08:39:48.647Z,10.40
2023-04-12T08:42:17.073Z,10.70
2023-04-12T08:44:45.778Z,11.40
2023-04-12T08:47:14.187Z,10.30
2023-04-12T08:49:43.867Z,11.50
2023-04-12T08:52:13.569Z,11.10
2023-04-12T08:54:42.033Z,10.60
2023-04-12T08:57:10.594Z,11.40
2023-04-12T08:59:39.904Z,10.70
2023-04-12T09:02:08.830Z,11.40
2023-04-12T09:04:53.182Z,10.10
2023-04-12T09:07:28.968Z,9.30
2023-04-12T09:09:58.726Z,9.30
2023-04-12T09:12:27.991Z,8.00
2023-04-12T09:15:31.055Z,9.10
2023-04-12T09:18:17.123Z,9.20
2023-04-12T09:20:46.738Z,8.70
2023-04-12T09:23:21.686Z,9.00
2023-04-12T09:25:53.421Z,8.80
2023-04-12T09:28:27.353Z,9.40
2023-04-12T09:31:02.335Z,8.40
2023-04-12T09:33:36.983Z,9.80
2023-04-12T09:36:10.257Z,11.90
2023-04-12T09:38:39.665Z,11.60
2023-04-12T09:41:21.555Z,10.60
2023-04-12T09:43:54.202Z,9.80
2023-04-12T09:46:24.307Z,10.30
2023-04-12T09:48:55.252Z,11.30
2023-04-12T09:51:34.068Z,10.80
2023-04-12T09:54:05.352Z,13.10
2023-04-12T09:56:36.218Z,12.70
2023-04-12T09:59:11.244Z,10.00
2023-04-12T10:01:40.469Z,10.00
2023-04-12T10:04:10.604Z,10.40
2023-04-12T10:11:05.631Z,10.10
2023-04-12T10:13:35.704Z,10.10
2023-04-12T10:16:06.354Z,11.80
2023-04-12T10:25:20.018Z,15.70
2023-04-12T10:27:49.028Z,15.30
2023-04-12T10:38:03.829Z,17.90
2023-04-12T10:40:34.105Z,18.90
2023-04-12T10:43:22.758Z,19.30
2023-04-12T10:45:52.580Z,19.20
2023-04-12T10:48:31.678Z,17.70
2023-04-12T10:51:26.961Z,18.70
2023-04-12T10:54:12.543Z,19.40
2023-04-12T10:56:42.942Z,20.70
2023-04-12T10:59:34.263Z,21.60
2023-04-12T11:02:09.481Z,21.50
2023-04-12T11:04:39.178Z,22.50
2023-04-12T11:07:13.580Z,21.10
2023-04-12T11:09:57.701Z,20.40
2023-04-12T11:12:35.546Z,19.30
2023-04-12T11:15:06.470Z,19.60
2023-04-12T11:17:55.586Z,19.80
2023-04-12T11:20:26.643Z,15.60
2023-04-12T11:22:56.055Z,15.20
2023-04-12T11:25:26.639Z,15.60
2023-04-12T11:27:56.601Z,15.80
2023-04-12T11:30:29.917Z,16.90
2023-04-12T11:32:58.988Z,16.70
2023-04-12T11:35:30.632Z,16.70
2023-04-12T11:37:59.857Z,16.90
2023-04-12T11:40:28.833Z,16.00
2023-04-12T11:42:57.995Z,16.60
2023-04-12T11:45:27.070Z,14.90
2023-04-12T11:47:58.404Z,15.60
2023-04-12T11:50:31.664Z,15.00
2023-04-12T11:53:12.428Z,14.90
2023-04-12T11:55:41.796Z,14.30
2023-04-12T11:58:10.431Z,14.60
2023-04-12T12:00:44.307Z,14.00
2023-04-12T12:03:14.032Z,14.50
2023-04-12T12:05:43.985Z,14.50
2023-04-12T12:08:13.294Z,13.80
2023-04-12T12:13:46.660Z,13.00
2023-04-12T12:16:15.886Z,14.60
2023-04-12T12:18:51.033Z,12.70
2023-04-12T12:21:22.083Z,12.60
2023-04-12T12:23:51.089Z,12.00
2023-04-12T12:26:24.165Z,13.90
2023-04-12T12:28:54.056Z,12.60
2023-04-12T12:31:26.543Z,16.00
2023-04-12T12:33:59.651Z,14.90
2023-04-12T12:36:34.767Z,14.80
2023-04-12T12:39:13.005Z,14.20
2023-04-12T12:41:41.947Z,14.30
2023-04-12T12:44:15.864Z,13.90
2023-04-12T12:46:55.249Z,14.00
2023-04-12T12:49:25.837Z,15.80
2023-04-12T12:51:55.220Z,15.20
2023-04-12T12:54:39.311Z,13.80
2023-04-12T12:57:09.950Z,14.80
2023-04-12T12:59:38.988Z,14.80
2023-04-12T13:02:08.079Z,14.30
2023-04-12T13:04:39.885Z,14.50
2023-04-12T13:07:09.465Z,15.50
2023-04-12T13:09:38.534Z,16.20
2023-04-12T13:12:08.234Z,16.80
2023-04-12T13:14:39.532Z,15.80
2023-04-12T13:17:08.426Z,16.90
2023-04-12T13:19:39.224Z,14.20
2023-04-12T13:22:08.946Z,15.70
2023-04-12T13:24:37.848Z,16.20
2023-04-12T13:27:06.468Z,17.40
2023-04-12T13:29:39.006Z,17.10
2023-04-12T13:32:08.171Z,16.70
2023-04-12T13:34:37.910Z,20.30
2023-04-12T13:37:06.512Z,18.30
2023-04-12T13:39:40.435Z,17.10
2023-04-12T13:42:09.036Z,17.50
2023-04-12T13:44:38.204Z,18.00
2023-04-12T13:47:08.193Z,15.60
2023-04-12T13:49:37.929Z,16.30
2023-04-12T13:52:06.588Z,16.40
2023-04-12T13:54:36.176Z,18.10
2023-04-12T13:57:04.862Z,17.60
2023-04-12T13:59:33.397Z,16.70
2023-04-12T14:02:02.419Z,14.40
2023-04-12T14:04:31.714Z,14.40
2023-04-12T14:07:01.040Z,15.00
2023-04-12T14:09:35.822Z,14.10
2023-04-12T14:12:05.524Z,15.50
2023-04-12T14:14:34.189Z,14.20
2023-04-12T14:17:10.642Z,20.10
2023-04-12T14:19:40.005Z,18.70
2023-04-12T14:22:08.472Z,15.50
2023-04-12T14:27:10.548Z,15.50
2023-04-12T14:29:40.035Z,15.40
2023-04-12T14:32:09.101Z,15.70
2023-04-12T14:34:38.268Z,16.80
2023-04-12T14:37:06.878Z,13.80
2023-04-12T14:39:36.489Z,15.60
2023-04-12T14:42:06.090Z,16.50
2023-04-12T14:44:40.206Z,20.20
2023-04-12T14:47:09.517Z,15.30
2023-04-12T14:49:38.200Z,15.20
2023-04-12T14:52:08.552Z,14.50
2023-04-12T14:54:36.997Z,17.10
2023-04-12T14:57:05.460Z,15.90
2023-04-12T14:59:41.406Z,18.90
2023-04-12T15:02:10.245Z,18.50
2023-04-12T15:04:39.137Z,16.60
2023-04-12T15:07:09.261Z,16.60
2023-04-12T15:09:38.825Z,16.40
2023-04-12T15:12:08.676Z,14.20
2023-04-12T15:14:39.163Z,18.90
2023-04-12T15:17:11.339Z,18.70
2023-04-12T15:19:39.937Z,18.50
2023-04-12T15:22:08.457Z,18.40
2023-04-12T15:24:38.889Z,16.10
2023-04-12T15:27:08.045Z,14.80
2023-04-12T15:29:36.944Z,14.70
2023-04-12T15:32:05.505Z,16.70
2023-04-12T15:34:35.407Z,16.40
2023-04-12T15:37:05.524Z,17.50
2023-04-12T15:39:36.765Z,15.10
2023-04-12T15:42:06.036Z,16.30
2023-04-12T15:44:34.985Z,19.20
2023-04-12T15:47:11.050Z,17.50
2023-04-12T15:49:40.618Z,16.60
2023-04-12T15:52:09.367Z,15.60
2023-04-12T15:54:44.037Z,14.30
2023-04-12T15:57:13.996Z,13.50
2023-04-12T15:59:47.968Z,12.50
2023-04-12T16:02:17.489Z,13.10
2023-04-12T16:04:46.671Z,12.60
2023-04-12T16:07:15.356Z,13.40
2023-04-12T16:09:44.541Z,14.20
2023-04-12T16:12:14.807Z,13.40
2023-04-12T16:14:44.039Z,13.60
2023-04-12T16:17:14.958Z,13.50
2023-04-12T16:19:43.899Z,16.80
2023-04-12T16:22:12.800Z,15.70
2023-04-12T16:24:41.433Z,17.40
2023-04-12T16:27:11.248Z,16.60
2023-04-12T16:29:40.572Z,15.60
2023-04-12T16:32:15.135Z,13.00
2023-04-12T16:34:44.830Z,12.60
2023-04-12T16:37:13.497Z,10.90
2023-04-12T16:39:46.716Z,12.10
2023-04-12T16:42:15.970Z,12.40
2023-04-12T16:44:44.850Z,11.60
2023-04-12T16:47:14.843Z,10.70
2023-04-12T16:49:44.669Z,11.70
2023-04-12T16:52:13.577Z,11.80
2023-04-12T16:54:42.722Z,10.30
2023-04-12T16:57:12.104Z,10.60
2023-04-12T16:59:42.589Z,10.50
2023-04-12T17:02:12.844Z,10.10
2023-04-12T17:04:42.242Z,10.00
2023-04-12T17:07:11.378Z,11.10
2023-04-12T17:09:41.298Z,9.40
2023-04-12T17:12:09.926Z,10.50
2023-04-12T17:14:39.002Z,8.90
2023-04-12T17:17:19.608Z,8.50
2023-04-12T17:19:48.750Z,9.00
2023-04-12T17:22:18.311Z,9.20
2023-04-12T17:24:56.560Z,9.40
2023-04-12T17:27:26.108Z,9.20
2023-04-12T17:29:54.925Z,10.10
2023-04-12T17:32:29.281Z,10.60
2023-04-12T17:34:59.084Z,9.80
2023-04-12T17:37:30.580Z,8.90
2023-04-12T17:40:01.179Z,8.20
2023-04-12T17:42:30.690Z,8.60
2023-04-12T17:45:00.176Z,8.00
2023-04-12T17:47:35.012Z,8.00
2023-04-12T17:50:04.977Z,9.00
2023-04-12T17:52:36.436Z,8.70
2023-04-12T17:56:03.882Z,8.50
2023-04-12T17:59:17.491Z,8.50
2023-04-12T18:01:48.304Z,8.20
2023-04-12T18:04:17.740Z,8.90
2023-04-12T18:06:48.309Z,9.50
2023-04-12T18:09:20.891Z,8.40
2023-04-12T18:11:51.895Z,9.90
2023-04-12T18:14:20.955Z,8.00
2023-04-12T18:16:56.163Z,9.50
2023-04-12T18:19:25.172Z,9.70
2023-04-12T18:21:54.342Z,10.30
2023-04-12T18:24:23.653Z,9.60
2023-04-12T18:26:52.934Z,10.80
2023-04-12T18:29:22.173Z,10.40
2023-04-12T18:31:51.890Z,10.40
2023-04-12T18:34:21.176Z,10.60
2023-04-12T18:36:51.522Z,10.60
2023-04-12T18:39:20.750Z,10.40
2023-04-12T18:41:49.914Z,9.80
2023-04-12T18:44:20.137Z,10.00
2023-04-12T18:46:49.001Z,11.20
2023-04-12T18:49:18.780Z,10.40
2023-04-12T18:51:47.802Z,12.20
2023-04-12T18:54:17.807Z,10.20
2023-04-12T18:56:46.586Z,10.50
2023-04-12T18:59:17.928Z,11.20
2023-04-12T19:01:49.232Z,11.50
2023-04-12T19:04:18.325Z,11.50
2023-04-12T19:06:47.580Z,12.20
2023-04-12T19:09:16.673Z,12.20
2023-04-12T19:11:45.920Z,13.30
2023-04-12T19:14:14.938Z,14.80
2023-04-12T19:16:43.730Z,13.50
2023-04-12T19:19:12.516Z,14.90
2023-04-12T19:21:41.847Z,15.00
2023-04-12T19:24:10.376Z,15.70
2023-04-12T19:26:46.955Z,14.90
2023-04-12T19:29:16.252Z,14.40
2023-04-12T19:31:47.758Z,13.90
2023-04-12T19:34:18.355Z,15.30
2023-04-12T19:36:47.821Z,14.40
2023-04-12T19:39:18.395Z,12.10
2023-04-12T19:41:49.467Z,11.20
2023-04-12T19:44:17.798Z,11.10
2023-04-12T19:46:46.900Z,9.50
2023-04-12T19:49:15.362Z,9.20
2023-04-12T19:51:44.184Z,8.60
2023-04-12T19:54:13.670Z,8.30
2023-04-12T19:56:43.013Z,8.80
2023-04-12T19:59:12.360Z,8.50
2023-04-12T20:01:48.728Z,8.40
2023-04-12T20:04:19.398Z,7.90
2023-04-12T20:06:49.724Z,7.30
2023-04-12T20:09:18.579Z,7.60
2023-04-12T20:11:47.096Z,7.70
2023-04-12T20:14:18.978Z,7.30
2023-04-12T20:16:47.613Z,8.00
2023-04-12T20:19:16.587Z,9.10
2023-04-12T20:21:45.570Z,8.90
2023-04-12T20:24:14.349Z,8.40
2023-04-12T20:26:46.655Z,8.10
2023-04-12T20:29:16.302Z,8.20
2023-04-12T20:31:48.041Z,8.40
2023-04-12T20:34:17.865Z,8.20
2023-04-12T20:36:47.395Z,8.80
2023-04-12T20:39:16.540Z,9.40
2023-04-12T20:41:50.234Z,8.80
2023-04-12T20:44:19.694Z,9.60
2023-04-12T20:46:51.269Z,9.60
2023-04-12T20:49:20.711Z,8.30
2023-04-12T20:51:50.109Z,8.90
2023-04-12T20:54:19.942Z,9.30
2023-04-12T20:56:48.297Z,10.80
2023-04-12T20:59:24.454Z,13.70
2023-04-12T21:01:53.319Z,13.30
2023-04-12T21:04:22.639Z,13.90
2023-04-12T21:06:55.661Z,14.70
2023-04-12T21:09:24.915Z,13.60
2023-04-12T21:11:53.970Z,10.70
2023-04-12T21:16:55.168Z,9.00
2023-04-12T21:19:24.105Z,9.40
2023-04-12T21:21:54.048Z,10.00
2023-04-12T21:24:23.233Z,10.00
2023-04-12T21:26:56.607Z,9.70
2023-04-12T21:29:31.949Z,10.30
2023-04-12T21:32:02.425Z,11.30
2023-04-12T21:34:32.875Z,11.50
2023-04-12T21:37:02.214Z,11.90
2023-04-12T21:39:31.801Z,10.20
2023-04-12T21:42:00.765Z,10.70
2023-04-12T21:44:31.044Z,10.40
2023-04-12T21:46:59.697Z,10.30
2023-04-12T21:49:30.335Z,11.90
2023-04-12T21:51:59.417Z,10.70
2023-04-12T21:54:37.047Z,10.50
2023-04-12T21:57:06.388Z,10.80
2023-04-12T21:59:34.869Z,10.60
2023-04-12T22:02:03.448Z,11.70
2023-04-12T22:04:32.003Z,11.20
2023-04-12T22:07:04.099Z,10.90
2023-04-12T22:09:33.899Z,11.00
2023-04-12T22:12:06.731Z,11.80
2023-04-12T22:14:36.607Z,11.10
2023-04-12T22:17:06.309Z,11.10
2023-04-12T22:19:34.807Z,11.70
2023-04-12T22:22:04.210Z,11.20
2023-04-12T22:24:33.888Z,12.10
2023-04-12T22:27:05.472Z,12.10
2023-04-12T22:29:35.428Z,11.90
2023-04-12T22:32:03.960Z,12.50
2023-04-12T22:34:34.049Z,13.90
2023-04-12T22:37:08.733Z,12.80
2023-04-12T22:39:37.906Z,12.90
2023-04-12T22:42:06.555Z,15.20
2023-04-12T22:44:39.883Z,13.70
2023-04-12T22:47:08.931Z,14.00
2023-04-12T22:49:44.858Z,13.20
2023-04-12T22:52:13.874Z,12.50
2023-04-12T22:54:42.371Z,12.00
2023-04-12T22:57:10.925Z,14.80
2023-04-12T22:59:39.627Z,12.00
2023-04-12T23:02:09.763Z,15.10
2023-04-12T23:04:38.446Z,12.20
2023-04-12T23:07:06.976Z,12.30
2023-04-12T23:09:36.297Z,12.70
2023-04-12T23:12:06.561Z,13.50
2023-04-12T23:14:40.500Z,12.30
2023-04-12T23:17:10.453Z,12.80
2023-04-12T23:19:39.189Z,13.70
2023-04-12T23:22:09.230Z,15.00
2023-04-12T23:24:40.656Z,14.10
2023-04-12T23:27:09.862Z,13.90
2023-04-12T23:29:38.907Z,15.00
2023-04-12T23:32:08.105Z,12.70
2023-04-12T23:34:36.745Z,12.40
2023-04-12T23:37:05.507Z,11.60
2023-04-12T23:39:35.777Z,11.40
2023-04-12T23:42:04.407Z,9.30
2023-04-12T23:44:34.908Z,9.60
2023-04-12T23:47:03.627Z,9.10
2023-04-12T23:49:32.153Z,9.30
2023-04-12T23:52:02.554Z,8.60
2023-04-12T23:54:31.917Z,8.10
2023-04-12T23:57:01.467Z,8.70
2023-04-12T23:59:31.026Z,8.30
